Bahia Mar, Texas
Current Conditions -  °F | °C
As of 6:53 AM on Wednesday 22 Oct 2014 (Local Time) from KPIL Reporting Station
Overcast Overcast  
Wind Chill: 78°   Ceiling: 7500
Heat Index: 80°   Visibility: 8mi
Dew Point: 71°   Wind: 10mph
Humidity: 79%   Direction: 50°NE
Pressure: 29.94"   Gusts: NA
Location:  26.0776°N, 97.3389°W
Report Text: KPIL 221153Z AUTO 05009KT 8SM SCT046 BKN075 OVC090 26/22 A2994 RMK AO2 SLP139 7//// T02560217 10256 20250 53007
Loading
Personal Weather Stations






























Interactive Weather Map
Tropical Storm Tracking
New forecast layout! Learn more

10-Day Weather Forecast

Advertisements
Track Severe Weather on mobile